Time;durP1;ratioP1;P1;durP2;ratioP2;P2;SDS_P1;SDS_P2;PMS_P1;PMS_P2;Temp;Humidity;BMP_temperature;BMP_pressure;BME280_temperature;BME280_humidity;BME280_pressure;Samples;Min_cycle;Max_cycle;Signal;HPM_P1;HPM_P2
2022/11/07 00:01:09;;;;;;;30.92;29.73;;;10.10;94.30;;;;;;4841296;29;20041;-78
2022/11/07 00:03:35;;;;;;;32.92;31.63;;;10.20;94.30;;;;;;4857631;29;20551;-80
2022/11/07 00:06:01;;;;;;;33.15;31.85;;;10.20;94.30;;;;;;4857378;29;20398;-79
2022/11/07 00:08:30;;;;;;;31.20;30.00;;;10.20;94.20;;;;;;4855853;29;20442;-79
2022/11/07 00:11:00;;;;;;;33.55;32.25;;;10.30;94.30;;;;;;4857225;29;20030;-80
2022/11/07 00:13:26;;;;;;;32.08;30.88;;;10.30;94.20;;;;;;4857487;29;20112;-79
2022/11/07 00:15:53;;;;;;;31.17;29.98;;;10.30;94.20;;;;;;4840637;29;20029;-79
2022/11/07 00:18:20;;;;;;;32.08;30.88;;;10.40;94.20;;;;;;4840451;29;20041;-79
2022/11/07 00:20:45;;;;;;;31.95;30.75;;;10.40;94.20;;;;;;4857122;29;20025;-76
2022/11/07 00:23:11;;;;;;;32.88;31.67;;;10.50;94.30;;;;;;4855784;29;20042;-79
2022/11/07 00:25:37;;;;;;;30.45;29.25;;;10.50;94.20;;;;;;4855897;29;20116;-79
2022/11/07 00:28:03;;;;;;;30.70;29.50;;;10.50;94.20;;;;;;4840667;29;20058;-79
2022/11/07 00:30:28;;;;;;;31.70;30.50;;;10.50;94.20;;;;;;4839952;29;20407;-79
2022/11/07 00:32:54;;;;;;;32.08;30.88;;;10.50;94.20;;;;;;4856922;29;20059;-79
2022/11/07 00:35:20;;;;;;;31.55;30.35;;;10.50;94.20;;;;;;4855597;29;20045;-79
2022/11/07 00:37:45;;;;;;;31.25;30.05;;;10.60;94.20;;;;;;4855589;29;20057;-79
2022/11/07 00:40:11;;;;;;;29.25;28.15;;;10.60;94.20;;;;;;4856846;29;20407;-79
2022/11/07 00:42:37;;;;;;;30.48;29.27;;;10.60;94.30;;;;;;4840133;29;20486;-79
2022/11/07 00:45:03;;;;;;;30.65;29.45;;;10.60;94.30;;;;;;4855402;29;20029;-78
2022/11/07 00:47:29;;;;;;;33.22;31.92;;;10.60;94.30;;;;;;4840182;29;20479;-76
2022/11/07 00:49:54;;;;;;;32.50;31.30;;;10.70;94.30;;;;;;4839913;29;20062;-79
2022/11/07 00:52:20;;;;;;;33.15;31.88;;;10.70;94.30;;;;;;4855430;29;20471;-79
2022/11/07 00:54:46;;;;;;;33.70;32.40;;;10.80;94.30;;;;;;4855166;29;20034;-79
2022/11/07 00:57:11;;;;;;;36.17;34.78;;;10.80;94.30;;;;;;4839901;29;20047;-79
2022/11/07 00:59:37;;;;;;;35.10;33.80;;;10.90;94.30;;;;;;4839943;29;20417;-79
2022/11/07 01:02:03;;;;;;;36.38;34.97;;;10.90;94.30;;;;;;4855408;29;20165;-77
2022/11/07 01:07:13;;;;;;;37.03;35.63;;;11.00;94.30;;;;;;4856486;29;20495;-78
2022/11/07 01:09:38;;;;;;;39.55;38.05;;;11.00;94.30;;;;;;4856475;29;20471;-78
2022/11/07 01:12:04;;;;;;;36.83;35.42;;;11.00;94.30;;;;;;4839851;29;20085;-79
2022/11/07 01:14:30;;;;;;;;;;;11.10;94.30;;;;;;4839995;29;20426;-78
2022/11/07 01:16:56;;;;;;;38.72;37.30;;;11.10;94.30;;;;;;4839682;29;20053;-78
2022/11/07 01:19:21;;;;;;;37.10;35.70;;;11.20;94.30;;;;;;4856395;29;20423;-78
2022/11/07 01:21:47;;;;;;;36.67;35.28;;;11.10;94.30;;;;;;4839531;29;20419;-78
2022/11/07 01:24:14;;;;;;;38.97;37.47;;;11.20;94.30;;;;;;4839656;29;20049;-78
2022/11/07 01:26:42;;;;;;;37.80;36.40;;;11.20;94.30;;;;;;4856186;29;20060;-78
2022/11/07 01:29:07;;;;;;;37.83;36.42;;;11.20;94.30;;;;;;4839426;29;20037;-78
2022/11/07 01:31:33;;;;;;;40.00;38.50;;;11.30;94.30;;;;;;4856051;29;20098;-78
2022/11/07 01:33:59;;;;;;;39.03;37.53;;;11.30;94.30;;;;;;4854772;29;20093;-79
2022/11/07 01:36:25;;;;;;;41.85;40.25;;;11.30;94.30;;;;;;4839369;29;20406;-79
2022/11/07 01:38:51;;;;;;;43.97;42.38;;;11.30;94.30;;;;;;4854776;29;20041;-78
2022/11/07 01:41:20;;;;;;;42.53;40.92;;;11.40;94.30;;;;;;4855741;29;20498;-78
2022/11/07 01:43:54;;;;;;;42.85;41.25;;;11.40;94.30;;;;;;4838605;29;20037;-78
2022/11/07 01:46:23;;;;;;;46.80;45.10;;;11.40;94.30;;;;;;4839077;29;20249;-78
2022/11/07 01:49:12;;;;;;;45.45;43.75;;;11.40;94.30;;;;;;4855638;29;20036;-78
2022/11/07 01:52:00;;;;;;;46.08;44.38;;;11.40;94.30;;;;;;4839278;29;20393;-77
2022/11/07 01:54:34;;;;;;;50.22;48.35;;;11.50;94.30;;;;;;4839289;29;20547;-76
2022/11/07 01:57:04;;;;;;;49.97;48.08;;;11.50;94.30;;;;;;4838881;29;20495;-76
2022/11/07 01:59:31;;;;;;;54.60;52.60;;;11.50;94.30;;;;;;4854340;29;20257;-76
2022/11/07 02:01:57;;;;;;;55.80;53.70;;;11.50;94.40;;;;;;4855594;29;20029;-76
2022/11/07 02:04:26;;;;;;;56.38;54.28;;;11.50;94.40;;;;;;4838876;29;20642;-76
2022/11/07 02:07:03;;;;;;;57.78;55.58;;;11.60;94.40;;;;;;4855454;29;20034;-76
2022/11/07 02:09:30;;;;;;;60.30;58.00;;;11.60;94.40;;;;;;4855365;29;20052;-76
2022/11/07 02:11:59;;;;;;;58.33;56.13;;;11.60;94.40;;;;;;4838562;29;20030;-76
2022/11/07 02:14:26;;;;;;;61.25;58.95;;;11.70;94.40;;;;;;4838883;29;20123;-77
2022/11/07 02:16:53;;;;;;;65.93;63.42;;;11.70;94.40;;;;;;4838724;29;20094;-78
2022/11/07 02:19:24;;;;;;;64.80;62.40;;;11.80;94.40;;;;;;4854253;29;20041;-78
2022/11/07 02:22:10;;;;;;;65.13;62.67;;;11.80;94.40;;;;;;4855524;29;20033;-78
2022/11/07 02:24:37;;;;;;;66.38;63.88;;;11.80;94.40;;;;;;4855527;29;20174;-78
2022/11/07 02:27:09;;;;;;;62.50;60.15;;;11.80;94.40;;;;;;4838849;29;20406;-78
2022/11/07 02:29:37;;;;;;;67.07;64.57;;;11.80;94.40;;;;;;4838779;29;20030;-79
2022/11/07 02:32:06;;;;;;;68.03;65.43;;;11.90;94.50;;;;;;4838572;29;20054;-79
2022/11/07 02:34:32;;;;;;;66.43;63.92;;;11.90;94.50;;;;;;4838350;29;20029;-79
2022/11/07 02:36:58;;;;;;;;;;;12.00;94.50;;;;;;4855781;29;20034;-78
2022/11/07 02:39:24;;;;;;;71.95;69.25;;;12.00;94.50;;;;;;4855224;29;20007;-79
2022/11/07 02:41:52;;;;;;;73.13;70.43;;;12.00;94.50;;;;;;4838475;29;20034;-76
2022/11/07 02:44:18;;;;;;;73.65;70.85;;;12.00;94.50;;;;;;4838542;29;20037;-76
2022/11/07 02:46:44;;;;;;;;;;;12.10;94.50;;;;;;4857527;29;20050;-76
2022/11/07 02:49:09;;;;;;;73.03;70.32;;;12.10;94.50;;;;;;4838337;29;19920;-76
2022/11/07 02:51:35;;;;;;;72.47;69.78;;;12.10;94.40;;;;;;4855242;29;20037;-76
2022/11/07 02:54:01;;;;;;;74.05;71.25;;;12.10;94.50;;;;;;4840381;29;20034;-76
2022/11/07 02:56:26;;;;;;;73.55;70.75;;;12.10;94.50;;;;;;4857695;29;20055;-76
2022/11/07 02:58:52;;;;;;;73.32;70.57;;;12.10;94.50;;;;;;4842056;29;20042;-76
2022/11/07 03:01:19;;;;;;;71.72;69.03;;;12.10;94.50;;;;;;4842281;29;20037;-76
2022/11/07 03:03:46;;;;;;;70.65;67.95;;;12.10;94.60;;;;;;4858667;29;20042;-76
2022/11/07 03:06:16;;;;;;;71.78;69.07;;;12.10;94.60;;;;;;4858674;29;20052;-76
2022/11/07 03:08:42;;;;;;;73.15;70.35;;;12.10;94.60;;;;;;4858532;29;20044;-76
2022/11/07 03:11:09;;;;;;;70.30;67.60;;;12.20;94.60;;;;;;4857419;29;20273;-76
2022/11/07 03:13:35;;;;;;;70.40;67.70;;;12.20;94.60;;;;;;4842030;29;20037;-76
2022/11/07 03:16:09;;;;;;;70.72;67.82;;;12.20;94.60;;;;;;4858512;29;20090;-76
2022/11/07 03:18:35;;;;;;;69.82;67.13;;;12.20;94.70;;;;;;4841702;29;20109;-76
2022/11/07 03:21:01;;;;;;;68.38;65.78;;;12.30;94.70;;;;;;4842244;29;20494;-76
2022/11/07 03:23:27;;;;;;;;;;;12.30;94.70;;;;;;4857498;29;20506;-76
2022/11/07 03:25:52;;;;;;;67.55;64.95;;;12.30;94.70;;;;;;4826486;29;19912;-76
2022/11/07 03:28:18;;;;;;;67.03;64.43;;;12.40;94.60;;;;;;4841624;29;20399;-76
2022/11/07 03:30:44;;;;;;;69.00;66.40;;;12.40;94.60;;;;;;4858256;29;20038;-76
2022/11/07 03:33:09;;;;;;;67.20;64.60;;;12.40;94.70;;;;;;4856981;29;20038;-76
2022/11/07 03:35:35;;;;;;;68.32;65.72;;;12.50;94.70;;;;;;4841567;29;20140;-76
2022/11/07 03:38:01;;;;;;;72.75;69.95;;;12.50;94.70;;;;;;4856825;29;20045;-76
2022/11/07 03:40:27;;;;;;;70.53;67.82;;;12.60;94.70;;;;;;4856847;29;20044;-76
2022/11/07 03:42:52;;;;;;;72.50;69.70;;;12.60;94.70;;;;;;4841365;29;20034;-76
2022/11/07 03:45:18;;;;;;;77.00;74.10;;;12.60;94.70;;;;;;4856749;29;20041;-76
2022/11/07 03:47:44;;;;;;;75.38;72.47;;;12.70;94.70;;;;;;4841384;29;20053;-76
2022/11/07 03:50:16;;;;;;;77.45;74.47;;;12.70;94.60;;;;;;4841256;29;20430;-76
2022/11/07 03:52:42;;;;;;;76.22;73.32;;;12.70;94.60;;;;;;4857748;29;20029;-76
2022/11/07 03:55:09;;;;;;;77.65;74.65;;;12.70;94.60;;;;;;4841185;29;20033;-76
2022/11/07 03:57:35;;;;;;;80.40;77.30;;;12.70;94.60;;;;;;4856623;29;20642;-76
2022/11/07 04:00:01;;;;;;;80.97;77.88;;;12.70;94.60;;;;;;4841012;29;20042;-76
2022/11/07 04:02:27;;;;;;;80.18;77.07;;;12.70;94.90;;;;;;4840912;29;20086;-76
2022/11/07 04:04:53;;;;;;;79.43;76.40;;;12.70;94.70;;;;;;4855865;29;20038;-78
2022/11/07 04:07:18;;;;;;;80.47;77.38;;;12.70;94.70;;;;;;4857599;29;20101;-79
2022/11/07 04:09:44;;;;;;;77.55;74.57;;;12.80;94.70;;;;;;4840906;29;20128;-79
2022/11/07 04:17:38;;;;;;;76.85;73.85;;;12.80;94.70;;;;;;4856530;29;20072;-79
2022/11/07 04:20:05;;;;;;;79.60;76.50;;;12.90;94.80;;;;;;4840696;29;20459;-79
2022/11/07 04:22:31;;;;;;;73.55;70.75;;;12.90;94.80;;;;;;4858076;29;20324;-79
2022/11/07 04:24:56;;;;;;;74.18;71.28;;;12.90;94.80;;;;;;4859180;29;20538;-80
2022/11/07 04:30:18;;;;;;;74.65;71.75;;;13.00;94.80;;;;;;4857584;29;20056;-78
2022/11/07 04:32:47;;;;;;;76.05;73.15;;;13.00;94.80;;;;;;4857313;29;20068;-78
2022/11/07 04:35:14;;;;;;;75.63;72.72;;;13.00;94.80;;;;;;4857155;29;20120;-78
2022/11/07 04:37:41;;;;;;;72.63;69.82;;;13.10;94.80;;;;;;4840275;29;20128;-78
2022/11/07 04:40:08;;;;;;;68.60;66.00;;;13.00;94.80;;;;;;4855788;29;20040;-78
2022/11/07 04:42:34;;;;;;;72.18;69.38;;;13.00;94.80;;;;;;4840256;29;20025;-78
2022/11/07 04:45:00;;;;;;;68.65;66.03;;;13.10;94.80;;;;;;4856934;29;20509;-78
2022/11/07 04:47:26;;;;;;;69.65;66.95;;;13.10;94.80;;;;;;4840138;29;20041;-78
2022/11/07 04:49:51;;;;;;;71.45;68.75;;;13.20;94.90;;;;;;4856737;29;20424;-78
2022/11/07 04:52:17;;;;;;;71.47;68.78;;;13.10;94.80;;;;;;4855535;29;20033;-78
2022/11/07 04:54:43;;;;;;;75.68;72.78;;;13.20;94.90;;;;;;4855326;29;20395;-78
2022/11/07 04:57:08;;;;;;;76.45;73.55;;;13.20;94.90;;;;;;4855494;29;20058;-76
2022/11/07 04:59:34;;;;;;;76.57;73.63;;;13.20;94.80;;;;;;4855418;29;20033;-76
2022/11/07 05:02:01;;;;;;;83.13;79.93;;;13.20;94.80;;;;;;4839771;29;20510;-76
2022/11/07 05:04:26;;;;;;;82.03;78.82;;;13.20;94.80;;;;;;4856468;29;20093;-78
2022/11/07 05:06:52;;;;;;;82.25;79.05;;;13.20;94.80;;;;;;4855381;29;20038;-79
2022/11/07 05:09:18;;;;;;;83.10;79.90;;;13.20;94.80;;;;;;4839592;29;20149;-78
2022/11/07 05:11:47;;;;;;;84.78;81.47;;;13.20;94.80;;;;;;4855391;29;20053;-78
2022/11/07 05:14:13;;;;;;;82.63;79.43;;;13.20;94.80;;;;;;4856174;29;20040;-78
2022/11/07 05:16:42;;;;;;;87.05;83.65;;;13.20;94.80;;;;;;4839078;29;20404;-78
2022/11/07 05:19:17;;;;;;;85.22;81.93;;;13.10;94.80;;;;;;4839813;29;20037;-78
2022/11/07 05:21:44;;;;;;;81.90;78.70;;;13.20;94.80;;;;;;4839537;29;20495;-79
2022/11/07 05:24:10;;;;;;;83.35;80.05;;;13.20;94.80;;;;;;4839391;29;20162;-78
2022/11/07 05:26:36;;;;;;;84.35;81.05;;;13.10;94.80;;;;;;4839447;29;20029;-76
2022/11/07 05:29:03;;;;;;;80.25;77.05;;;13.10;94.80;;;;;;4854983;29;20482;-79
2022/11/07 05:31:28;;;;;;;82.55;79.30;;;13.20;94.80;;;;;;4839464;29;20402;-76
2022/11/07 05:33:54;;;;;;;80.00;76.82;;;13.20;94.90;;;;;;4855049;29;20030;-76
2022/11/07 05:36:22;;;;;;;79.57;76.47;;;13.20;94.90;;;;;;4855009;29;20068;-78
2022/11/07 05:38:52;;;;;;;79.30;76.20;;;13.20;95.10;;;;;;4839407;29;20136;-77
2022/11/07 05:41:19;;;;;;;75.60;72.63;;;13.20;94.90;;;;;;4839419;29;20036;-79
2022/11/07 05:43:46;;;;;;;74.68;71.78;;;13.20;94.90;;;;;;4856059;29;20040;-76
2022/11/07 05:46:12;;;;;;;73.40;70.60;;;13.20;94.90;;;;;;4839336;29;20494;-76
2022/11/07 05:48:37;;;;;;;78.20;75.20;;;13.20;94.90;;;;;;4839152;29;20463;-78
2022/11/07 05:51:05;;;;;;;70.20;67.50;;;13.20;94.90;;;;;;4855645;29;20108;-76
2022/11/07 05:53:31;;;;;;;73.25;70.43;;;13.20;94.90;;;;;;4838984;29;20106;-76
2022/11/07 05:55:57;;;;;;;69.28;66.57;;;13.20;95.00;;;;;;4839441;29;20044;-76
2022/11/07 05:58:23;;;;;;;67.85;65.25;;;13.20;95.00;;;;;;4854461;29;20052;-76
2022/11/07 06:00:49;;;;;;;67.07;64.47;;;13.30;95.00;;;;;;4840229;29;20116;-78
2022/11/07 06:03:14;;;;;;;64.70;62.20;;;13.40;95.10;;;;;;4857280;29;20518;-79
2022/11/07 06:05:41;;;;;;;66.82;64.22;;;13.40;95.00;;;;;;4838979;29;20060;-79
2022/11/07 06:08:10;;;;;;;69.88;67.18;;;13.40;94.90;;;;;;4838723;29;20058;-79
2022/11/07 06:10:37;;;;;;;64.38;61.88;;;13.40;94.90;;;;;;4839011;29;20467;-79
2022/11/07 06:13:05;;;;;;;64.40;61.90;;;13.40;94.90;;;;;;4855319;29;20507;-79
2022/11/07 06:15:33;;;;;;;65.05;62.55;;;13.40;95.00;;;;;;4855566;29;20025;-79
2022/11/07 06:18:00;;;;;;;65.05;62.55;;;13.30;95.00;;;;;;4855245;29;20017;-79
2022/11/07 06:20:26;;;;;;;61.72;59.33;;;13.30;95.00;;;;;;4855667;29;20113;-79
2022/11/07 06:22:55;;;;;;;;;;;13.30;95.00;;;;;;4839027;29;20402;-79
2022/11/07 06:25:21;;;;;;;62.03;59.63;;;13.30;95.10;;;;;;4855319;29;19919;-79
2022/11/07 06:27:46;;;;;;;64.50;62.00;;;13.30;95.00;;;;;;4838188;29;20029;-78
2022/11/07 06:30:12;;;;;;;62.70;60.30;;;13.40;95.10;;;;;;4853804;29;20467;-79
2022/11/07 06:32:42;;;;;;;62.00;59.60;;;13.40;95.10;;;;;;4838521;29;20026;-79
2022/11/07 06:35:09;;;;;;;62.45;60.03;;;13.40;95.10;;;;;;4838588;29;20500;-79
2022/11/07 06:37:35;;;;;;;60.72;58.33;;;13.40;95.10;;;;;;4855155;29;20030;-79
2022/11/07 06:40:01;;;;;;;59.95;57.63;;;13.40;95.10;;;;;;4854029;29;20040;-78
2022/11/07 06:42:27;;;;;;;60.53;58.03;;;13.40;95.30;;;;;;4855028;29;20045;-79
2022/11/07 06:44:52;;;;;;;59.65;57.35;;;13.40;95.10;;;;;;4855056;29;20491;-78
2022/11/07 06:47:18;;;;;;;61.78;59.38;;;13.50;95.10;;;;;;4838458;29;20132;-79
2022/11/07 06:49:44;;;;;;;59.53;57.22;;;13.50;95.10;;;;;;4853820;29;20038;-79
2022/11/07 06:52:09;;;;;;;54.88;52.78;;;13.50;95.10;;;;;;4838402;29;20042;-79
2022/11/07 06:54:35;;;;;;;55.20;53.10;;;13.60;95.20;;;;;;4838342;29;20495;-79
2022/11/07 06:57:01;;;;;;;54.45;52.35;;;13.60;95.20;;;;;;4853505;29;20066;-79
2022/11/07 06:59:26;;;;;;;51.58;49.58;;;13.60;95.20;;;;;;4853581;29;20033;-79
2022/11/07 07:01:52;;;;;;;53.55;51.45;;;13.70;95.20;;;;;;4853622;29;20038;-79
2022/11/07 07:04:18;;;;;;;52.47;50.47;;;13.70;95.10;;;;;;4854088;29;20033;-79
2022/11/07 07:06:44;;;;;;;55.10;53.00;;;13.70;95.10;;;;;;4853958;29;20411;-79
2022/11/07 07:09:10;;;;;;;57.53;55.33;;;13.70;95.10;;;;;;4838206;29;20057;-80
2022/11/07 07:11:36;;;;;;;54.63;52.53;;;13.70;95.10;;;;;;4838383;29;20406;-79
2022/11/07 07:14:03;;;;;;;56.38;54.17;;;13.70;95.10;;;;;;4854974;29;20037;-79
2022/11/07 07:16:28;;;;;;;54.25;52.15;;;13.70;95.10;;;;;;4838114;29;20041;-79
2022/11/07 07:18:54;;;;;;;54.10;52.00;;;13.70;95.10;;;;;;4838089;29;20045;-76
2022/11/07 07:21:20;;;;;;;54.75;52.65;;;13.70;95.20;;;;;;4853810;29;20053;-78
2022/11/07 07:23:46;;;;;;;53.15;51.05;;;13.80;95.20;;;;;;4837685;29;20042;-79
2022/11/07 07:26:13;;;;;;;54.47;52.38;;;13.80;95.10;;;;;;4838270;29;20080;-77
2022/11/07 07:28:40;;;;;;;53.92;51.83;;;13.80;95.10;;;;;;4854641;29;20482;-77
2022/11/07 07:31:08;;;;;;;;;;;13.80;95.10;;;;;;4855239;29;20066;-77
2022/11/07 07:33:34;;;;;;;51.35;49.35;;;13.80;95.10;;;;;;4837823;29;19914;-77
2022/11/07 07:35:59;;;;;;;50.97;48.97;;;13.90;95.10;;;;;;4853352;29;20038;-77
2022/11/07 07:38:25;;;;;;;52.22;50.22;;;13.90;95.10;;;;;;4853173;29;20456;-77
2022/11/07 07:40:51;;;;;;;51.80;49.80;;;13.80;95.10;;;;;;4855633;29;20034;-77
2022/11/07 07:43:16;;;;;;;50.50;48.60;;;13.80;95.10;;;;;;4857973;29;20486;-77
2022/11/07 07:45:42;;;;;;;51.00;49.03;;;13.90;95.10;;;;;;4857814;29;20041;-77
2022/11/07 07:48:08;;;;;;;52.40;50.40;;;13.90;95.10;;;;;;4856419;29;20419;-77
2022/11/07 07:50:33;;;;;;;52.65;50.60;;;13.90;95.10;;;;;;4856502;29;20308;-77
2022/11/07 07:52:59;;;;;;;52.30;50.30;;;13.90;95.10;;;;;;4857518;29;20072;-77
2022/11/07 07:55:25;;;;;;;52.95;50.95;;;13.90;95.10;;;;;;4856273;29;20034;-77
2022/11/07 07:57:50;;;;;;;51.90;49.90;;;14.00;95.20;;;;;;4856513;29;20447;-77
2022/11/07 08:00:17;;;;;;;57.17;54.97;;;14.00;95.20;;;;;;4856444;29;20089;-77
2022/11/07 08:02:45;;;;;;;53.13;51.03;;;14.00;95.20;;;;;;4857283;29;20061;-77
2022/11/07 08:05:12;;;;;;;52.78;50.70;;;14.00;95.10;;;;;;4857356;29;20033;-78
2022/11/07 08:07:49;;;;;;;54.55;52.45;;;14.00;95.10;;;;;;4857314;29;20025;-77
2022/11/07 08:10:16;;;;;;;56.50;54.30;;;14.00;95.10;;;;;;4840708;29;20495;-77
2022/11/07 08:12:46;;;;;;;56.20;54.00;;;14.00;95.10;;;;;;4857180;29;20056;-77
2022/11/07 08:15:14;;;;;;;57.58;55.38;;;14.00;95.10;;;;;;4857503;29;20052;-76
2022/11/07 08:17:40;;;;;;;53.22;51.13;;;14.00;95.10;;;;;;4857595;29;20147;-76
2022/11/07 08:20:08;;;;;;;52.88;50.78;;;14.00;95.10;;;;;;4840262;29;20538;-76
2022/11/07 08:22:34;;;;;;;52.08;50.08;;;14.00;95.10;;;;;;4855994;29;20380;-76
2022/11/07 08:25:00;;;;;;;;;;;14.10;95.20;;;;;;4857294;29;20046;-76
2022/11/07 08:27:26;;;;;;;53.65;51.60;;;14.10;95.20;;;;;;4840381;29;19964;-76
2022/11/07 08:29:51;;;;;;;58.20;55.92;;;14.10;95.10;;;;;;4855676;29;20398;-77
2022/11/07 08:32:17;;;;;;;55.80;53.67;;;14.10;95.10;;;;;;4857129;29;20036;-76
2022/11/07 08:34:43;;;;;;;53.47;51.45;;;14.10;95.10;;;;;;4855739;29;20116;-76
2022/11/07 08:37:08;;;;;;;55.30;53.20;;;14.10;95.10;;;;;;4857092;29;20038;-76
2022/11/07 08:39:34;;;;;;;55.33;53.22;;;14.20;95.20;;;;;;4840073;29;20037;-76
2022/11/07 08:42:00;;;;;;;54.95;52.85;;;14.20;95.10;;;;;;4856583;29;20038;-76
2022/11/07 08:44:25;;;;;;;57.95;55.75;;;14.20;95.20;;;;;;4855200;29;20037;-76
2022/11/07 08:46:51;;;;;;;58.17;55.97;;;14.30;95.20;;;;;;4855641;29;20426;-76
2022/11/07 08:49:17;;;;;;;59.83;57.53;;;14.30;95.20;;;;;;4840007;29;20511;-76
2022/11/07 08:51:43;;;;;;;59.90;57.60;;;14.30;95.20;;;;;;4856388;29;20038;-75
2022/11/07 08:54:10;;;;;;;61.83;59.42;;;14.40;95.10;;;;;;4856306;29;20034;-79
2022/11/07 08:56:36;;;;;;;63.17;60.72;;;14.40;95.10;;;;;;4855140;29;20466;-79
2022/11/07 08:59:02;;;;;;;65.20;62.70;;;14.40;95.10;;;;;;4855050;29;20040;-78
2022/11/07 09:01:28;;;;;;;67.03;64.43;;;14.40;95.10;;;;;;4838935;29;20195;-78
2022/11/07 09:03:53;;;;;;;66.45;63.85;;;14.40;95.10;;;;;;4839465;29;20033;-78
2022/11/07 09:06:19;;;;;;;61.50;59.10;;;14.40;95.10;;;;;;4843225;29;20061;-77
2022/11/07 09:08:45;;;;;;;62.17;59.78;;;14.40;95.10;;;;;;4865138;29;20081;-78
2022/11/07 09:11:14;;;;;;;61.00;58.60;;;14.40;95.10;;;;;;4867100;29;20033;-77
2022/11/07 09:13:40;;;;;;;57.95;55.65;;;14.50;95.20;;;;;;4849884;29;20038;-77
2022/11/07 09:16:06;;;;;;;57.13;54.88;;;14.50;95.20;;;;;;4866680;29;20029;-78
2022/11/07 09:18:32;;;;;;;54.38;52.28;;;14.60;95.30;;;;;;4867065;29;20110;-77
2022/11/07 09:20:59;;;;;;;54.38;52.28;;;14.70;95.30;;;;;;4851597;29;20048;-78
2022/11/07 09:23:24;;;;;;;52.80;50.80;;;14.80;95.20;;;;;;4868409;29;20036;-77
2022/11/07 09:25:50;;;;;;;53.50;51.40;;;14.90;95.20;;;;;;4864216;29;20029;-78
2022/11/07 09:28:16;;;;;;;51.42;49.42;;;15.00;95.20;;;;;;4865674;29;20555;-77
2022/11/07 09:30:42;;;;;;;54.95;52.85;;;15.00;95.20;;;;;;4865945;29;20056;-76
2022/11/07 09:33:08;;;;;;;56.33;54.13;;;15.00;95.10;;;;;;4847814;29;20061;-77
2022/11/07 09:35:33;;;;;;;57.20;55.00;;;15.00;95.10;;;;;;4865650;29;20032;-77
2022/11/07 09:37:59;;;;;;;56.65;54.45;;;15.00;95.10;;;;;;4864010;29;20108;-77
2022/11/07 09:40:51;;;;;;;53.17;51.10;;;15.00;95.20;;;;;;4864202;29;20045;-77
2022/11/07 09:43:23;;;;;;;54.03;51.92;;;15.00;95.20;;;;;;4863328;29;20033;-77
2022/11/07 09:46:31;;;;;;;56.55;54.35;;;15.10;95.20;;;;;;4865844;29;20099;-77
2022/11/07 09:49:19;;;;;;;53.33;51.22;;;15.20;95.20;;;;;;4864698;29;20030;-77
2022/11/07 09:51:53;;;;;;;48.00;46.15;;;15.30;95.40;;;;;;4824862;29;20048;-76
2022/11/07 09:54:26;;;;;;;47.40;45.60;;;15.60;95.50;;;;;;4854610;29;20108;-77
2022/11/07 09:56:55;;;;;;;48.45;46.63;;;15.80;95.30;;;;;;4867651;29;20361;-77
2022/11/07 09:59:30;;;;;;;47.35;45.55;;;15.80;95.10;;;;;;4867750;29;20044;-76
2022/11/07 10:01:56;;;;;;;45.72;44.03;;;15.80;95.00;;;;;;4858804;29;20618;-75
2022/11/07 10:04:23;;;;;;;45.78;44.08;;;15.80;95.00;;;;;;4840680;29;20120;-77
2022/11/07 10:06:54;;;;;;;46.00;44.30;;;15.80;95.10;;;;;;4867678;29;20063;-77
2022/11/07 10:09:42;;;;;;;42.67;41.08;;;15.70;95.00;;;;;;4872524;29;20374;-77
2022/11/07 10:13:01;;;;;;;39.33;37.83;;;15.70;95.10;;;;;;4864666;29;20025;-76
2022/11/07 10:15:32;;;;;;;31.85;30.65;;;15.70;95.30;;;;;;4790405;29;20477;-77
2022/11/07 10:18:24;;;;;;;34.40;33.10;;;16.10;95.80;;;;;;4863486;29;20033;-77
2022/11/07 10:21:06;;;;;;;36.10;34.70;;;16.30;95.30;;;;;;4846131;29;20029;-76
2022/11/07 10:23:49;;;;;;;35.47;34.13;;;16.30;95.10;;;;;;4875385;29;20025;-76
2022/11/07 10:26:19;;;;;;;32.80;31.50;;;16.30;95.10;;;;;;4858243;29;20052;-76
2022/11/07 10:28:52;;;;;;;33.58;32.28;;;16.20;95.00;;;;;;4860083;29;20060;-75
2022/11/07 10:31:19;;;;;;;35.10;33.80;;;16.10;95.00;;;;;;4852387;29;20060;-76
2022/11/07 10:34:00;;;;;;;32.28;31.08;;;16.00;95.10;;;;;;4852087;29;20390;-75
2022/11/07 10:36:30;;;;;;;36.35;34.95;;;16.00;95.20;;;;;;4862043;29;20032;-75
2022/11/07 10:38:56;;;;;;;37.78;36.38;;;16.00;95.20;;;;;;4866077;29;21481;-75
2022/11/07 10:41:24;;;;;;;36.10;34.70;;;15.90;95.10;;;;;;4851812;29;20040;-73
2022/11/07 10:44:10;;;;;;;36.25;34.85;;;15.90;95.10;;;;;;4868577;29;20431;-73
2022/11/07 10:46:44;;;;;;;26.95;25.90;;;16.00;95.40;;;;;;4868602;29;20036;-73
2022/11/07 10:49:19;;;;;;;30.77;29.58;;;16.60;96.10;;;;;;4867798;29;20598;-73
2022/11/07 10:51:44;;;;;;;30.50;29.30;;;17.00;95.60;;;;;;4862589;29;20045;-73
2022/11/07 10:54:20;;;;;;;30.70;29.50;;;17.20;95.40;;;;;;4862845;29;20394;-73
2022/11/07 10:56:50;;;;;;;32.75;31.55;;;17.30;95.30;;;;;;4863873;29;21468;-73
2022/11/07 10:59:30;;;;;;;32.72;31.52;;;17.40;95.20;;;;;;4863526;29;20029;-73
2022/11/07 11:01:57;;;;;;;32.95;31.67;;;17.40;95.20;;;;;;4862828;29;20069;-73
2022/11/07 11:04:31;;;;;;;33.45;32.15;;;17.30;95.10;;;;;;4862632;29;20076;-73
2022/11/07 11:07:04;;;;;;;34.15;32.85;;;17.20;95.10;;;;;;4852606;29;20048;-73
2022/11/07 11:09:34;;;;;;;35.00;33.70;;;17.10;95.10;;;;;;4853665;29;20101;-72
2022/11/07 11:12:15;;;;;;;38.00;36.60;;;17.00;95.00;;;;;;4857724;29;20144;-72
2022/11/07 11:14:41;;;;;;;36.65;35.25;;;16.80;95.00;;;;;;4867569;29;20033;-72
2022/11/07 11:17:24;;;;;;;37.88;36.47;;;16.70;95.10;;;;;;4865056;29;20370;-72
2022/11/07 11:19:52;;;;;;;44.50;42.80;;;16.60;95.20;;;;;;4869384;29;20029;-72
2022/11/07 11:22:23;;;;;;;39.50;38.00;;;16.60;95.20;;;;;;4867467;29;20033;-72
2022/11/07 11:25:18;;;;;;;41.47;39.88;;;16.60;95.30;;;;;;4866852;29;20052;-72
2022/11/07 11:27:47;;;;;;;37.38;35.97;;;16.70;95.40;;;;;;4869577;29;20026;-72
2022/11/07 11:30:19;;;;;;;36.92;35.53;;;16.80;95.40;;;;;;4869239;29;20025;-71
2022/11/07 11:32:47;;;;;;;35.95;34.55;;;17.00;95.30;;;;;;4866572;29;20021;-73
2022/11/07 11:35:16;;;;;;;34.92;33.63;;;17.00;95.10;;;;;;4871844;29;20036;-74
2022/11/07 11:37:45;;;;;;;35.05;33.75;;;17.00;95.10;;;;;;4876802;29;20040;-73
2022/11/07 11:40:17;;;;;;;34.42;33.13;;;16.90;95.10;;;;;;4877044;29;20464;-73
2022/11/07 11:43:14;;;;;;;34.33;33.03;;;16.90;95.10;;;;;;4877064;29;20854;-72
2022/11/07 11:46:13;;;;;;;33.60;32.30;;;16.90;95.20;;;;;;4877074;29;20040;-73
2022/11/07 11:48:55;;;;;;;33.30;32.00;;;16.90;95.20;;;;;;4877240;29;20379;-74
2022/11/07 11:51:26;;;;;;;31.67;30.48;;;16.90;95.20;;;;;;4877256;29;20382;-75
2022/11/07 11:53:52;;;;;;;33.03;31.75;;;16.90;95.20;;;;;;4877690;29;20021;-77
2022/11/07 11:56:21;;;;;;;32.55;31.35;;;16.90;95.20;;;;;;4871295;29;20039;-73
2022/11/07 11:58:52;;;;;;;29.95;28.85;;;16.90;95.30;;;;;;4866364;29;20046;-74
2022/11/07 12:01:37;;;;;;;30.13;28.98;;;17.00;95.30;;;;;;4871857;29;20056;-76
2022/11/07 12:04:27;;;;;;;29.70;28.60;;;17.00;95.20;;;;;;4864165;29;20108;-76
2022/11/07 12:07:13;;;;;;;30.27;29.08;;;17.00;95.20;;;;;;4864513;29;20025;-77
2022/11/07 12:09:55;;;;;;;31.15;29.95;;;17.00;95.20;;;;;;4860203;29;20610;-78
2022/11/07 12:12:46;;;;;;;30.98;29.77;;;17.10;95.20;;;;;;4857403;29;20036;-77
2022/11/07 12:15:35;;;;;;;29.42;28.33;;;17.10;95.30;;;;;;4868384;29;20054;-76
2022/11/07 12:18:21;;;;;;;30.27;29.08;;;17.20;95.30;;;;;;4868249;29;20025;-77
2022/11/07 12:21:13;;;;;;;30.63;29.42;;;17.20;95.20;;;;;;4850949;29;20021;-77
2022/11/07 12:23:38;;;;;;;29.13;28.02;;;17.20;95.20;;;;;;4869323;29;20092;-77
2022/11/07 12:26:17;;;;;;;30.33;29.13;;;17.10;95.10;;;;;;4874530;29;20063;-79
2022/11/07 12:28:49;;;;;;;32.42;31.23;;;17.10;95.10;;;;;;4861501;29;20092;-79
2022/11/07 12:31:26;;;;;;;33.97;32.67;;;17.00;95.10;;;;;;4878236;29;20025;-77
2022/11/07 12:34:30;;;;;;;34.58;33.28;;;17.00;95.20;;;;;;4861332;29;20041;-77
2022/11/07 12:37:16;;;;;;;33.30;32.00;;;17.00;95.20;;;;;;4867513;29;20032;-77
2022/11/07 12:40:12;;;;;;;33.58;32.28;;;17.00;95.20;;;;;;4842613;29;20057;-78
2022/11/07 12:43:01;;;;;;;28.77;27.67;;;17.10;95.30;;;;;;4861390;29;20021;-74
2022/11/07 12:46:02;;;;;;;27.67;26.58;;;17.10;95.30;;;;;;4823970;29;20040;-81
2022/11/07 12:48:48;;;;;;;28.58;27.48;;;17.20;95.30;;;;;;4861001;29;20049;-77
2022/11/07 12:51:30;;;;;;;29.48;28.38;;;17.20;95.50;;;;;;4868569;29;20028;-79